sensor_id;sensor_type;location;lat;lon;timestamp;temperature;humidity
19813;DHT22;10066;48.108;11.448;2022-07-23T00:00:12;23.60;93.20
19813;DHT22;10066;48.108;11.448;2022-07-23T00:02:40;23.60;93.40
19813;DHT22;10066;48.108;11.448;2022-07-23T00:05:09;23.50;93.70
19813;DHT22;10066;48.108;11.448;2022-07-23T00:07:37;23.50;93.80
19813;DHT22;10066;48.108;11.448;2022-07-23T00:10:05;23.50;93.90
19813;DHT22;10066;48.108;11.448;2022-07-23T00:12:33;23.40;93.90
19813;DHT22;10066;48.108;11.448;2022-07-23T00:15:00;23.40;94.00
19813;DHT22;10066;48.108;11.448;2022-07-23T00:17:27;23.40;94.00
19813;DHT22;10066;48.108;11.448;2022-07-23T00:19:54;23.30;94.00
19813;DHT22;10066;48.108;11.448;2022-07-23T00:22:23;23.30;94.00
19813;DHT22;10066;48.108;11.448;2022-07-23T00:24:50;23.30;94.20
19813;DHT22;10066;48.108;11.448;2022-07-23T00:27:17;23.20;94.20
19813;DHT22;10066;48.108;11.448;2022-07-23T00:29:44;23.10;94.30
19813;DHT22;10066;48.108;11.448;2022-07-23T00:32:11;23.10;94.40
19813;DHT22;10066;48.108;11.448;2022-07-23T00:34:38;23.10;94.50
19813;DHT22;10066;48.108;11.448;2022-07-23T00:37:07;23.00;94.40
19813;DHT22;10066;48.108;11.448;2022-07-23T00:39:35;22.90;94.40
19813;DHT22;10066;48.108;11.448;2022-07-23T00:42:03;22.90;94.40
19813;DHT22;10066;48.108;11.448;2022-07-23T00:44:30;22.80;94.30
19813;DHT22;10066;48.108;11.448;2022-07-23T00:46:58;22.80;94.60
19813;DHT22;10066;48.108;11.448;2022-07-23T00:49:27;22.80;94.30
19813;DHT22;10066;48.108;11.448;2022-07-23T00:51:55;22.80;94.40
19813;DHT22;10066;48.108;11.448;2022-07-23T00:54:24;22.80;94.50
19813;DHT22;10066;48.108;11.448;2022-07-23T00:56:53;22.80;94.60
19813;DHT22;10066;48.108;11.448;2022-07-23T00:59:20;22.80;94.60
19813;DHT22;10066;48.108;11.448;2022-07-23T01:01:47;22.80;94.70
19813;DHT22;10066;48.108;11.448;2022-07-23T01:04:15;22.80;94.70
19813;DHT22;10066;48.108;11.448;2022-07-23T01:06:43;22.80;94.80
19813;DHT22;10066;48.108;11.448;2022-07-23T01:09:10;22.80;94.90
19813;DHT22;10066;48.108;11.448;2022-07-23T01:11:38;22.80;95.00
19813;DHT22;10066;48.108;11.448;2022-07-23T01:14:10;22.90;95.20
19813;DHT22;10066;48.108;11.448;2022-07-23T01:16:38;22.90;95.40
19813;DHT22;10066;48.108;11.448;2022-07-23T01:19:05;22.90;95.30
19813;DHT22;10066;48.108;11.448;2022-07-23T01:21:35;22.90;95.20
19813;DHT22;10066;48.108;11.448;2022-07-23T01:24:05;23.00;95.30
19813;DHT22;10066;48.108;11.448;2022-07-23T01:26:33;23.10;95.70
19813;DHT22;10066;48.108;11.448;2022-07-23T01:29:00;23.10;95.40
19813;DHT22;10066;48.108;11.448;2022-07-23T01:31:28;23.20;94.90
19813;DHT22;10066;48.108;11.448;2022-07-23T01:33:55;23.20;94.80
19813;DHT22;10066;48.108;11.448;2022-07-23T01:36:23;23.10;93.50
19813;DHT22;10066;48.108;11.448;2022-07-23T01:38:50;23.00;93.00
19813;DHT22;10066;48.108;11.448;2022-07-23T01:41:18;22.80;92.80
19813;DHT22;10066;48.108;11.448;2022-07-23T01:43:46;22.60;92.70
19813;DHT22;10066;48.108;11.448;2022-07-23T01:46:13;22.30;91.70
19813;DHT22;10066;48.108;11.448;2022-07-23T01:48:40;22.10;91.40
19813;DHT22;10066;48.108;11.448;2022-07-23T01:51:07;21.90;91.70
19813;DHT22;10066;48.108;11.448;2022-07-23T01:53:34;21.80;92.30
19813;DHT22;10066;48.108;11.448;2022-07-23T01:56:02;21.70;92.80
19813;DHT22;10066;48.108;11.448;2022-07-23T02:00:59;21.50;93.80
19813;DHT22;10066;48.108;11.448;2022-07-23T02:03:26;21.30;94.90
19813;DHT22;10066;48.108;11.448;2022-07-23T02:05:53;21.20;95.40
19813;DHT22;10066;48.108;11.448;2022-07-23T02:08:20;21.10;95.60
19813;DHT22;10066;48.108;11.448;2022-07-23T02:10:47;21.00;95.80
19813;DHT22;10066;48.108;11.448;2022-07-23T02:13:16;20.90;96.00
19813;DHT22;10066;48.108;11.448;2022-07-23T02:15:45;20.90;96.50
19813;DHT22;10066;48.108;11.448;2022-07-23T02:18:12;20.80;97.70
19813;DHT22;10066;48.108;11.448;2022-07-23T02:20:39;20.70;99.00
19813;DHT22;10066;48.108;11.448;2022-07-23T02:23:06;20.50;99.80
19813;DHT22;10066;48.108;11.448;2022-07-23T02:25:33;20.30;99.90
19813;DHT22;10066;48.108;11.448;2022-07-23T02:28:00;20.20;99.90
19813;DHT22;10066;48.108;11.448;2022-07-23T02:30:27;20.00;99.90
19813;DHT22;10066;48.108;11.448;2022-07-23T02:32:55;19.90;99.90
19813;DHT22;10066;48.108;11.448;2022-07-23T02:35:23;19.80;99.90
19813;DHT22;10066;48.108;11.448;2022-07-23T02:37:50;19.70;99.90
19813;DHT22;10066;48.108;11.448;2022-07-23T02:40:17;19.50;99.90
19813;DHT22;10066;48.108;11.448;2022-07-23T02:42:43;19.40;99.90
19813;DHT22;10066;48.108;11.448;2022-07-23T02:45:11;19.30;99.90
19813;DHT22;10066;48.108;11.448;2022-07-23T02:47:38;19.10;99.90
19813;DHT22;10066;48.108;11.448;2022-07-23T02:52:38;20.00;99.90
19813;DHT22;10066;48.108;11.448;2022-07-23T02:55:05;18.90;99.90
19813;DHT22;10066;48.108;11.448;2022-07-23T02:57:32;18.80;99.90
19813;DHT22;10066;48.108;11.448;2022-07-23T02:59:59;18.80;99.90
19813;DHT22;10066;48.108;11.448;2022-07-23T03:02:26;18.80;99.90
19813;DHT22;10066;48.108;11.448;2022-07-23T03:04:53;18.80;99.90
19813;DHT22;10066;48.108;11.448;2022-07-23T03:07:22;18.70;99.90
19813;DHT22;10066;48.108;11.448;2022-07-23T03:09:48;18.70;99.90
19813;DHT22;10066;48.108;11.448;2022-07-23T03:12:15;18.70;99.90
19813;DHT22;10066;48.108;11.448;2022-07-23T03:14:42;18.70;99.90
19813;DHT22;10066;48.108;11.448;2022-07-23T03:17:09;18.70;99.90
19813;DHT22;10066;48.108;11.448;2022-07-23T03:19:36;18.60;99.90
19813;DHT22;10066;48.108;11.448;2022-07-23T03:24:34;18.40;99.90
19813;DHT22;10066;48.108;11.448;2022-07-23T03:27:19;18.60;99.90
19813;DHT22;10066;48.108;11.448;2022-07-23T03:29:46;18.50;99.90
19813;DHT22;10066;48.108;11.448;2022-07-23T03:32:13;18.50;99.90
19813;DHT22;10066;48.108;11.448;2022-07-23T03:34:40;18.40;99.90
19813;DHT22;10066;48.108;11.448;2022-07-23T03:37:07;18.50;99.90
19813;DHT22;10066;48.108;11.448;2022-07-23T03:39:36;18.50;99.90
19813;DHT22;10066;48.108;11.448;2022-07-23T03:42:03;18.40;99.90
19813;DHT22;10066;48.108;11.448;2022-07-23T03:44:30;18.40;99.90
19813;DHT22;10066;48.108;11.448;2022-07-23T03:46:58;18.40;99.90
19813;DHT22;10066;48.108;11.448;2022-07-23T03:49:25;18.40;99.90
19813;DHT22;10066;48.108;11.448;2022-07-23T03:51:52;18.40;99.90
19813;DHT22;10066;48.108;11.448;2022-07-23T03:54:19;18.40;99.90
19813;DHT22;10066;48.108;11.448;2022-07-23T03:56:48;18.40;99.90
19813;DHT22;10066;48.108;11.448;2022-07-23T03:59:15;18.40;99.90
19813;DHT22;10066;48.108;11.448;2022-07-23T04:01:42;18.50;99.90
19813;DHT22;10066;48.108;11.448;2022-07-23T04:04:09;18.50;99.90
19813;DHT22;10066;48.108;11.448;2022-07-23T04:06:37;18.50;99.90
19813;DHT22;10066;48.108;11.448;2022-07-23T04:09:04;18.50;99.90
19813;DHT22;10066;48.108;11.448;2022-07-23T04:11:31;18.60;99.90
19813;DHT22;10066;48.108;11.448;2022-07-23T04:13:59;18.60;99.90
19813;DHT22;10066;48.108;11.448;2022-07-23T04:16:26;18.60;99.90
19813;DHT22;10066;48.108;11.448;2022-07-23T04:18:54;18.60;99.90
19813;DHT22;10066;48.108;11.448;2022-07-23T04:23:48;18.70;99.90
19813;DHT22;10066;48.108;11.448;2022-07-23T04:26:15;18.80;99.90
19813;DHT22;10066;48.108;11.448;2022-07-23T04:28:42;18.70;99.90
19813;DHT22;10066;48.108;11.448;2022-07-23T04:31:10;18.70;99.90
19813;DHT22;10066;48.108;11.448;2022-07-23T04:33:37;18.70;99.90
19813;DHT22;10066;48.108;11.448;2022-07-23T04:36:05;18.70;99.90
19813;DHT22;10066;48.108;11.448;2022-07-23T04:38:31;18.80;99.90
19813;DHT22;10066;48.108;11.448;2022-07-23T04:40:59;18.80;99.90
19813;DHT22;10066;48.108;11.448;2022-07-23T04:43:26;18.80;99.90
19813;DHT22;10066;48.108;11.448;2022-07-23T04:45:53;18.80;99.90
19813;DHT22;10066;48.108;11.448;2022-07-23T04:48:22;18.80;99.90
19813;DHT22;10066;48.108;11.448;2022-07-23T04:50:49;18.80;99.90
19813;DHT22;10066;48.108;11.448;2022-07-23T04:53:16;18.80;99.90
19813;DHT22;10066;48.108;11.448;2022-07-23T04:55:44;18.90;99.90
19813;DHT22;10066;48.108;11.448;2022-07-23T04:58:10;18.90;99.90
19813;DHT22;10066;48.108;11.448;2022-07-23T05:00:37;18.90;99.90
19813;DHT22;10066;48.108;11.448;2022-07-23T05:03:04;19.00;99.90
19813;DHT22;10066;48.108;11.448;2022-07-23T05:05:33;19.00;99.90
19813;DHT22;10066;48.108;11.448;2022-07-23T05:07:59;19.00;99.90
19813;DHT22;10066;48.108;11.448;2022-07-23T05:10:26;19.10;99.90
19813;DHT22;10066;48.108;11.448;2022-07-23T05:12:53;19.10;99.90
19813;DHT22;10066;48.108;11.448;2022-07-23T05:15:21;19.10;99.90
19813;DHT22;10066;48.108;11.448;2022-07-23T05:17:48;19.20;99.90
19813;DHT22;10066;48.108;11.448;2022-07-23T05:20:15;19.20;99.90
19813;DHT22;10066;48.108;11.448;2022-07-23T05:22:43;19.20;99.90
19813;DHT22;10066;48.108;11.448;2022-07-23T05:25:10;19.30;99.90
19813;DHT22;10066;48.108;11.448;2022-07-23T05:27:37;19.40;99.90
19813;DHT22;10066;48.108;11.448;2022-07-23T05:30:04;19.40;99.90
19813;DHT22;10066;48.108;11.448;2022-07-23T05:32:32;19.40;99.90
19813;DHT22;10066;48.108;11.448;2022-07-23T05:35:00;19.50;99.90
19813;DHT22;10066;48.108;11.448;2022-07-23T05:37:27;19.50;99.90
19813;DHT22;10066;48.108;11.448;2022-07-23T05:39:55;19.50;99.90
19813;DHT22;10066;48.108;11.448;2022-07-23T05:42:22;19.60;99.90
19813;DHT22;10066;48.108;11.448;2022-07-23T05:44:49;19.60;99.90
19813;DHT22;10066;48.108;11.448;2022-07-23T05:47:16;19.70;99.90
19813;DHT22;10066;48.108;11.448;2022-07-23T05:49:44;19.70;99.90
19813;DHT22;10066;48.108;11.448;2022-07-23T05:52:11;19.70;99.90
19813;DHT22;10066;48.108;11.448;2022-07-23T05:54:38;19.80;99.90
19813;DHT22;10066;48.108;11.448;2022-07-23T05:57:06;19.70;99.90
19813;DHT22;10066;48.108;11.448;2022-07-23T05:59:33;19.80;99.90
19813;DHT22;10066;48.108;11.448;2022-07-23T06:02:00;19.90;99.90
19813;DHT22;10066;48.108;11.448;2022-07-23T06:04:27;19.90;99.90
19813;DHT22;10066;48.108;11.448;2022-07-23T06:06:54;20.00;99.90
19813;DHT22;10066;48.108;11.448;2022-07-23T06:09:21;20.00;99.90
19813;DHT22;10066;48.108;11.448;2022-07-23T06:11:48;20.00;99.90
19813;DHT22;10066;48.108;11.448;2022-07-23T06:14:17;20.10;99.90
19813;DHT22;10066;48.108;11.448;2022-07-23T06:16:44;20.10;99.90
19813;DHT22;10066;48.108;11.448;2022-07-23T06:19:11;20.20;99.90
19813;DHT22;10066;48.108;11.448;2022-07-23T06:21:38;20.20;99.90
19813;DHT22;10066;48.108;11.448;2022-07-23T06:24:06;20.20;99.90
19813;DHT22;10066;48.108;11.448;2022-07-23T06:26:34;20.20;99.90
19813;DHT22;10066;48.108;11.448;2022-07-23T06:29:01;20.20;99.90
19813;DHT22;10066;48.108;11.448;2022-07-23T06:31:30;20.10;99.90
19813;DHT22;10066;48.108;11.448;2022-07-23T06:33:57;20.10;99.90
19813;DHT22;10066;48.108;11.448;2022-07-23T06:36:24;20.10;99.90
19813;DHT22;10066;48.108;11.448;2022-07-23T06:38:51;20.00;99.90
19813;DHT22;10066;48.108;11.448;2022-07-23T06:41:18;20.00;99.90
19813;DHT22;10066;48.108;11.448;2022-07-23T06:43:45;20.00;99.90
19813;DHT22;10066;48.108;11.448;2022-07-23T06:46:12;20.10;99.90
19813;DHT22;10066;48.108;11.448;2022-07-23T06:48:41;20.10;99.90
19813;DHT22;10066;48.108;11.448;2022-07-23T06:51:08;20.10;99.90
19813;DHT22;10066;48.108;11.448;2022-07-23T06:53:35;20.10;99.90
19813;DHT22;10066;48.108;11.448;2022-07-23T06:56:02;20.10;99.90
19813;DHT22;10066;48.108;11.448;2022-07-23T06:58:29;20.20;99.90
19813;DHT22;10066;48.108;11.448;2022-07-23T07:00:56;20.20;99.90
19813;DHT22;10066;48.108;11.448;2022-07-23T07:03:23;20.20;99.90
19813;DHT22;10066;48.108;11.448;2022-07-23T07:05:51;20.30;99.90
19813;DHT22;10066;48.108;11.448;2022-07-23T07:08:19;20.40;99.90
19813;DHT22;10066;48.108;11.448;2022-07-23T07:10:45;20.70;99.90
19813;DHT22;10066;48.108;11.448;2022-07-23T07:13:13;21.00;99.90
19813;DHT22;10066;48.108;11.448;2022-07-23T07:15:40;20.70;99.90
19813;DHT22;10066;48.108;11.448;2022-07-23T07:18:07;20.80;99.90
19813;DHT22;10066;48.108;11.448;2022-07-23T07:20:34;20.90;99.90
19813;DHT22;10066;48.108;11.448;2022-07-23T07:23:02;21.00;99.90
19813;DHT22;10066;48.108;11.448;2022-07-23T07:25:29;21.10;99.90
19813;DHT22;10066;48.108;11.448;2022-07-23T07:27:56;21.20;99.90
19813;DHT22;10066;48.108;11.448;2022-07-23T07:30:23;21.40;99.90
19813;DHT22;10066;48.108;11.448;2022-07-23T07:32:50;21.50;99.90
19813;DHT22;10066;48.108;11.448;2022-07-23T07:35:17;21.60;99.90
19813;DHT22;10066;48.108;11.448;2022-07-23T07:37:44;21.70;99.90
19813;DHT22;10066;48.108;11.448;2022-07-23T07:40:13;21.80;99.90
19813;DHT22;10066;48.108;11.448;2022-07-23T07:42:46;21.90;99.90
19813;DHT22;10066;48.108;11.448;2022-07-23T07:45:13;21.90;99.90
19813;DHT22;10066;48.108;11.448;2022-07-23T07:47:40;21.90;99.90
19813;DHT22;10066;48.108;11.448;2022-07-23T07:50:08;21.90;99.90
19813;DHT22;10066;48.108;11.448;2022-07-23T07:52:35;21.90;99.90
19813;DHT22;10066;48.108;11.448;2022-07-23T07:55:03;21.90;99.90
19813;DHT22;10066;48.108;11.448;2022-07-23T07:57:33;21.90;99.90
19813;DHT22;10066;48.108;11.448;2022-07-23T08:00:00;21.80;99.90
19813;DHT22;10066;48.108;11.448;2022-07-23T08:02:27;21.80;99.90
19813;DHT22;10066;48.108;11.448;2022-07-23T08:04:55;21.80;99.90
19813;DHT22;10066;48.108;11.448;2022-07-23T08:07:23;21.80;99.90
19813;DHT22;10066;48.108;11.448;2022-07-23T08:09:50;21.80;99.90
19813;DHT22;10066;48.108;11.448;2022-07-23T08:12:17;21.90;99.90
19813;DHT22;10066;48.108;11.448;2022-07-23T08:14:45;21.90;99.90
19813;DHT22;10066;48.108;11.448;2022-07-23T08:17:12;22.00;99.90
19813;DHT22;10066;48.108;11.448;2022-07-23T08:19:39;22.00;99.90
19813;DHT22;10066;48.108;11.448;2022-07-23T08:22:06;22.00;99.90
19813;DHT22;10066;48.108;11.448;2022-07-23T08:24:33;22.00;99.90
19813;DHT22;10066;48.108;11.448;2022-07-23T08:27:01;22.10;99.90
19813;DHT22;10066;48.108;11.448;2022-07-23T08:31:57;22.10;99.90
19813;DHT22;10066;48.108;11.448;2022-07-23T08:34:24;22.20;99.90
19813;DHT22;10066;48.108;11.448;2022-07-23T08:36:51;22.20;99.90
19813;DHT22;10066;48.108;11.448;2022-07-23T08:39:18;22.30;99.90
19813;DHT22;10066;48.108;11.448;2022-07-23T08:41:45;22.30;99.90
19813;DHT22;10066;48.108;11.448;2022-07-23T08:44:15;22.40;99.90
19813;DHT22;10066;48.108;11.448;2022-07-23T08:46:43;22.50;99.90
19813;DHT22;10066;48.108;11.448;2022-07-23T08:49:12;22.60;99.90
19813;DHT22;10066;48.108;11.448;2022-07-23T08:51:40;22.70;99.90
19813;DHT22;10066;48.108;11.448;2022-07-23T08:54:08;22.80;99.90
19813;DHT22;10066;48.108;11.448;2022-07-23T08:56:35;22.90;99.90
19813;DHT22;10066;48.108;11.448;2022-07-23T08:59:02;23.10;99.90
19813;DHT22;10066;48.108;11.448;2022-07-23T09:01:29;23.20;99.90
19813;DHT22;10066;48.108;11.448;2022-07-23T09:03:56;23.20;99.90
19813;DHT22;10066;48.108;11.448;2022-07-23T09:06:25;23.30;99.90
19813;DHT22;10066;48.108;11.448;2022-07-23T09:08:52;23.30;99.90
19813;DHT22;10066;48.108;11.448;2022-07-23T09:11:19;23.30;99.90
19813;DHT22;10066;48.108;11.448;2022-07-23T09:13:51;23.30;99.90
19813;DHT22;10066;48.108;11.448;2022-07-23T09:16:23;23.30;99.90
19813;DHT22;10066;48.108;11.448;2022-07-23T09:18:52;23.30;99.90
19813;DHT22;10066;48.108;11.448;2022-07-23T09:21:22;23.30;99.90
19813;DHT22;10066;48.108;11.448;2022-07-23T09:23:54;23.20;99.90
19813;DHT22;10066;48.108;11.448;2022-07-23T09:26:28;23.20;99.90
19813;DHT22;10066;48.108;11.448;2022-07-23T09:28:59;23.30;99.90
19813;DHT22;10066;48.108;11.448;2022-07-23T09:31:32;23.40;99.90
19813;DHT22;10066;48.108;11.448;2022-07-23T09:34:07;23.60;99.90
19813;DHT22;10066;48.108;11.448;2022-07-23T09:36:34;23.70;99.90
19813;DHT22;10066;48.108;11.448;2022-07-23T09:39:03;23.90;99.90
19813;DHT22;10066;48.108;11.448;2022-07-23T09:41:38;24.20;99.90
19813;DHT22;10066;48.108;11.448;2022-07-23T09:44:11;24.40;99.90
19813;DHT22;10066;48.108;11.448;2022-07-23T09:46:39;24.70;99.90
19813;DHT22;10066;48.108;11.448;2022-07-23T09:49:15;24.90;99.90
19813;DHT22;10066;48.108;11.448;2022-07-23T09:51:50;25.10;99.90
19813;DHT22;10066;48.108;11.448;2022-07-23T09:54:35;25.20;99.90
19813;DHT22;10066;48.108;11.448;2022-07-23T09:57:05;25.40;99.90
19813;DHT22;10066;48.108;11.448;2022-07-23T09:59:36;25.40;99.90
19813;DHT22;10066;48.108;11.448;2022-07-23T10:02:05;25.60;99.90
19813;DHT22;10066;48.108;11.448;2022-07-23T10:04:33;25.70;99.90
19813;DHT22;10066;48.108;11.448;2022-07-23T10:07:02;25.70;99.90
19813;DHT22;10066;48.108;11.448;2022-07-23T10:09:31;25.80;99.90
19813;DHT22;10066;48.108;11.448;2022-07-23T10:12:00;26.00;99.90
19813;DHT22;10066;48.108;11.448;2022-07-23T10:14:32;26.10;99.90
19813;DHT22;10066;48.108;11.448;2022-07-23T10:17:01;26.40;99.90
19813;DHT22;10066;48.108;11.448;2022-07-23T10:19:28;26.50;99.90
19813;DHT22;10066;48.108;11.448;2022-07-23T10:21:58;26.70;99.90
19813;DHT22;10066;48.108;11.448;2022-07-23T10:24:36;26.90;99.90
19813;DHT22;10066;48.108;11.448;2022-07-23T10:27:26;27.00;99.90
19813;DHT22;10066;48.108;11.448;2022-07-23T10:30:02;27.10;99.90
19813;DHT22;10066;48.108;11.448;2022-07-23T10:32:40;27.10;99.50
19813;DHT22;10066;48.108;11.448;2022-07-23T10:35:18;27.20;99.40
19813;DHT22;10066;48.108;11.448;2022-07-23T10:37:52;27.20;98.50
19813;DHT22;10066;48.108;11.448;2022-07-23T10:40:22;27.20;97.90
19813;DHT22;10066;48.108;11.448;2022-07-23T10:42:52;27.30;98.10
19813;DHT22;10066;48.108;11.448;2022-07-23T10:45:26;27.40;97.60
19813;DHT22;10066;48.108;11.448;2022-07-23T10:47:54;27.40;96.80
19813;DHT22;10066;48.108;11.448;2022-07-23T10:50:24;27.40;96.70
19813;DHT22;10066;48.108;11.448;2022-07-23T10:53:12;27.30;96.20
19813;DHT22;10066;48.108;11.448;2022-07-23T10:55:51;27.50;96.50
19813;DHT22;10066;48.108;11.448;2022-07-23T10:58:22;27.60;95.20
19813;DHT22;10066;48.108;11.448;2022-07-23T11:00:50;27.70;95.50
19813;DHT22;10066;48.108;11.448;2022-07-23T11:03:38;27.70;93.90
19813;DHT22;10066;48.108;11.448;2022-07-23T11:06:06;27.70;92.60
19813;DHT22;10066;48.108;11.448;2022-07-23T11:08:34;27.80;94.00
19813;DHT22;10066;48.108;11.448;2022-07-23T11:11:11;27.90;93.20
19813;DHT22;10066;48.108;11.448;2022-07-23T11:13:45;28.00;91.50
19813;DHT22;10066;48.108;11.448;2022-07-23T11:16:23;28.00;91.30
19813;DHT22;10066;48.108;11.448;2022-07-23T11:19:09;28.00;91.60
19813;DHT22;10066;48.108;11.448;2022-07-23T11:21:52;27.90;90.20
19813;DHT22;10066;48.108;11.448;2022-07-23T11:24:21;27.80;90.90
19813;DHT22;10066;48.108;11.448;2022-07-23T11:26:57;27.90;92.00
19813;DHT22;10066;48.108;11.448;2022-07-23T11:29:46;27.80;91.40
19813;DHT22;10066;48.108;11.448;2022-07-23T11:32:35;27.80;90.70
19813;DHT22;10066;48.108;11.448;2022-07-23T11:35:20;27.80;90.30
19813;DHT22;10066;48.108;11.448;2022-07-23T11:37:48;27.80;90.90
19813;DHT22;10066;48.108;11.448;2022-07-23T11:40:20;27.70;91.20
19813;DHT22;10066;48.108;11.448;2022-07-23T11:42:56;27.60;91.00
19813;DHT22;10066;48.108;11.448;2022-07-23T11:45:30;27.50;90.80
19813;DHT22;10066;48.108;11.448;2022-07-23T11:47:57;27.40;91.10
19813;DHT22;10066;48.108;11.448;2022-07-23T11:50:24;27.30;91.20
19813;DHT22;10066;48.108;11.448;2022-07-23T11:52:52;27.20;91.40
19813;DHT22;10066;48.108;11.448;2022-07-23T11:55:19;27.10;91.60
19813;DHT22;10066;48.108;11.448;2022-07-23T11:57:47;27.00;91.60
19813;DHT22;10066;48.108;11.448;2022-07-23T12:00:20;26.90;91.50
19813;DHT22;10066;48.108;11.448;2022-07-23T12:02:50;26.80;91.60
19813;DHT22;10066;48.108;11.448;2022-07-23T12:05:19;26.80;91.80
19813;DHT22;10066;48.108;11.448;2022-07-23T12:07:47;26.70;92.00
19813;DHT22;10066;48.108;11.448;2022-07-23T12:10:17;26.60;92.10
19813;DHT22;10066;48.108;11.448;2022-07-23T12:12:47;26.50;92.30
19813;DHT22;10066;48.108;11.448;2022-07-23T12:15:16;26.40;92.50
19813;DHT22;10066;48.108;11.448;2022-07-23T12:17:45;26.30;92.60
19813;DHT22;10066;48.108;11.448;2022-07-23T12:20:15;26.30;92.90
19813;DHT22;10066;48.108;11.448;2022-07-23T12:22:44;26.20;93.30
19813;DHT22;10066;48.108;11.448;2022-07-23T12:25:13;26.20;93.60
19813;DHT22;10066;48.108;11.448;2022-07-23T12:27:41;26.10;93.70
19813;DHT22;10066;48.108;11.448;2022-07-23T12:30:23;26.10;93.90
19813;DHT22;10066;48.108;11.448;2022-07-23T12:32:51;26.10;94.10
19813;DHT22;10066;48.108;11.448;2022-07-23T12:35:21;26.10;94.30
19813;DHT22;10066;48.108;11.448;2022-07-23T12:37:51;26.00;94.30
19813;DHT22;10066;48.108;11.448;2022-07-23T12:40:23;26.00;94.50
19813;DHT22;10066;48.108;11.448;2022-07-23T12:42:51;25.90;94.50
19813;DHT22;10066;48.108;11.448;2022-07-23T12:45:19;25.90;94.70
19813;DHT22;10066;48.108;11.448;2022-07-23T12:48:03;25.80;94.80
19813;DHT22;10066;48.108;11.448;2022-07-23T12:50:56;25.80;95.10
19813;DHT22;10066;48.108;11.448;2022-07-23T12:53:25;25.80;95.40
19813;DHT22;10066;48.108;11.448;2022-07-23T12:56:05;25.70;95.40
19813;DHT22;10066;48.108;11.448;2022-07-23T12:58:41;25.70;95.20
19813;DHT22;10066;48.108;11.448;2022-07-23T13:01:09;25.70;95.10
19813;DHT22;10066;48.108;11.448;2022-07-23T13:03:38;25.60;95.20
19813;DHT22;10066;48.108;11.448;2022-07-23T13:06:08;25.60;95.40
19813;DHT22;10066;48.108;11.448;2022-07-23T13:08:38;25.50;95.40
19813;DHT22;10066;48.108;11.448;2022-07-23T13:11:06;25.50;95.70
19813;DHT22;10066;48.108;11.448;2022-07-23T13:13:35;25.50;95.90
19813;DHT22;10066;48.108;11.448;2022-07-23T13:16:02;25.50;95.70
19813;DHT22;10066;48.108;11.448;2022-07-23T13:18:30;25.60;96.00
19813;DHT22;10066;48.108;11.448;2022-07-23T13:20:58;25.70;95.90
19813;DHT22;10066;48.108;11.448;2022-07-23T13:23:26;25.70;95.80
19813;DHT22;10066;48.108;11.448;2022-07-23T13:25:53;25.80;95.60
19813;DHT22;10066;48.108;11.448;2022-07-23T13:28:21;25.80;95.50
19813;DHT22;10066;48.108;11.448;2022-07-23T13:30:50;25.80;95.50
19813;DHT22;10066;48.108;11.448;2022-07-23T13:33:19;25.80;95.40
19813;DHT22;10066;48.108;11.448;2022-07-23T13:35:47;25.80;95.60
19813;DHT22;10066;48.108;11.448;2022-07-23T13:38:14;25.80;95.80
19813;DHT22;10066;48.108;11.448;2022-07-23T13:40:44;25.80;95.90
19813;DHT22;10066;48.108;11.448;2022-07-23T13:43:13;25.80;95.90
19813;DHT22;10066;48.108;11.448;2022-07-23T13:45:41;25.70;96.30
19813;DHT22;10066;48.108;11.448;2022-07-23T13:48:10;25.70;96.20
19813;DHT22;10066;48.108;11.448;2022-07-23T13:50:38;25.70;96.40
19813;DHT22;10066;48.108;11.448;2022-07-23T13:53:07;25.80;96.50
19813;DHT22;10066;48.108;11.448;2022-07-23T13:55:35;25.90;96.70
19813;DHT22;10066;48.108;11.448;2022-07-23T13:58:05;26.00;96.80
19813;DHT22;10066;48.108;11.448;2022-07-23T14:00:34;26.00;96.60
19813;DHT22;10066;48.108;11.448;2022-07-23T14:03:01;26.00;96.40
19813;DHT22;10066;48.108;11.448;2022-07-23T14:05:29;26.10;96.60
19813;DHT22;10066;48.108;11.448;2022-07-23T14:07:56;26.00;96.20
19813;DHT22;10066;48.108;11.448;2022-07-23T14:10:23;26.00;95.90
19813;DHT22;10066;48.108;11.448;2022-07-23T14:12:53;26.00;95.70
19813;DHT22;10066;48.108;11.448;2022-07-23T14:15:25;25.90;95.90
19813;DHT22;10066;48.108;11.448;2022-07-23T14:17:53;25.90;96.50
19813;DHT22;10066;48.108;11.448;2022-07-23T14:20:21;25.80;97.20
19813;DHT22;10066;48.108;11.448;2022-07-23T14:22:48;25.70;97.80
19813;DHT22;10066;48.108;11.448;2022-07-23T14:25:16;25.60;98.10
19813;DHT22;10066;48.108;11.448;2022-07-23T14:27:44;25.50;98.50
19813;DHT22;10066;48.108;11.448;2022-07-23T14:30:12;25.50;99.00
19813;DHT22;10066;48.108;11.448;2022-07-23T14:32:42;25.40;99.20
19813;DHT22;10066;48.108;11.448;2022-07-23T14:35:09;25.30;99.20
19813;DHT22;10066;48.108;11.448;2022-07-23T14:37:36;25.30;99.60
19813;DHT22;10066;48.108;11.448;2022-07-23T14:40:03;25.20;99.50
19813;DHT22;10066;48.108;11.448;2022-07-23T14:42:30;25.20;99.70
19813;DHT22;10066;48.108;11.448;2022-07-23T14:47:25;25.20;99.30
19813;DHT22;10066;48.108;11.448;2022-07-23T14:49:53;25.20;99.50
19813;DHT22;10066;48.108;11.448;2022-07-23T14:52:20;25.30;99.40
19813;DHT22;10066;48.108;11.448;2022-07-23T14:54:47;25.30;99.20
19813;DHT22;10066;48.108;11.448;2022-07-23T14:57:14;25.40;98.90
19813;DHT22;10066;48.108;11.448;2022-07-23T14:59:41;25.40;98.70
19813;DHT22;10066;48.108;11.448;2022-07-23T15:02:08;25.50;98.40
19813;DHT22;10066;48.108;11.448;2022-07-23T15:04:35;25.60;98.30
19813;DHT22;10066;48.108;11.448;2022-07-23T15:07:04;25.70;98.30
19813;DHT22;10066;48.108;11.448;2022-07-23T15:09:31;25.70;98.20
19813;DHT22;10066;48.108;11.448;2022-07-23T15:11:58;25.70;98.10
19813;DHT22;10066;48.108;11.448;2022-07-23T15:14:25;25.80;98.10
19813;DHT22;10066;48.108;11.448;2022-07-23T15:16:52;25.80;98.00
19813;DHT22;10066;48.108;11.448;2022-07-23T15:19:19;25.80;97.80
19813;DHT22;10066;48.108;11.448;2022-07-23T15:21:46;25.80;98.00
19813;DHT22;10066;48.108;11.448;2022-07-23T15:24:15;25.90;98.20
19813;DHT22;10066;48.108;11.448;2022-07-23T15:26:42;25.90;98.20
19813;DHT22;10066;48.108;11.448;2022-07-23T15:29:09;26.10;97.80
19813;DHT22;10066;48.108;11.448;2022-07-23T15:31:36;26.10;97.90
19813;DHT22;10066;48.108;11.448;2022-07-23T15:34:03;26.20;97.70
19813;DHT22;10066;48.108;11.448;2022-07-23T15:36:30;26.20;97.60
19813;DHT22;10066;48.108;11.448;2022-07-23T15:38:57;26.30;97.70